Time;durP1;ratioP1;P1;durP2;ratioP2;P2;SDS_P1;SDS_P2;PMS_P1;PMS_P2;Temp;Humidity;BMP_temperature;BMP_pressure;BME280_temperature;BME280_humidity;BME280_pressure;Samples;Min_cycle;Max_cycle;Signal;HPM_P1;HPM_P2
2021/05/08 00:01:58;;;;;;;8.70;5.53;;;;;;;6.29;70.88;100765.56;5113900;28;20043;-82
2021/05/08 00:04:29;;;;;;;;;;;;;;;6.28;71.25;100769.94;5122579;28;20068;-83
2021/05/08 00:06:58;;;;;;;7.50;4.93;;;;;;;6.26;71.57;100765.63;5112354;27;19928;-82
2021/05/08 00:09:25;;;;;;;6.28;5.15;;;;;;;6.26;71.74;100768.25;5104304;28;20105;-82
2021/05/08 00:11:55;;;;;;;8.10;5.07;;;;;;;6.22;71.78;100764.81;5121182;27;20150;-83
2021/05/08 00:14:25;;;;;;;8.60;5.72;;;;;;;6.27;71.82;100767.34;5115316;27;20056;-82
2021/05/08 00:16:52;;;;;;;8.95;5.10;;;;;;;6.23;72.07;100770.94;5115595;27;20111;-81
2021/05/08 00:19:20;;;;;;;9.43;5.78;;;;;;;6.24;72.01;100770.03;5110582;27;20059;-81
2021/05/08 00:21:50;;;;;;;10.32;5.68;;;;;;;6.23;72.67;100770.94;5118099;27;20044;-81
2021/05/08 00:24:19;;;;;;;8.25;5.55;;;;;;;6.21;72.48;100764.84;5119872;27;20083;-81
2021/05/08 00:26:45;;;;;;;8.32;5.60;;;;;;;6.22;72.86;100764.81;5126805;28;20063;-81
2021/05/08 00:29:11;;;;;;;6.72;5.03;;;;;;;6.19;73.06;100761.38;5096831;28;20070;-82
2021/05/08 00:31:39;;;;;;;7.43;5.40;;;;;;;6.17;73.43;100760.56;5119699;28;20063;-83
2021/05/08 00:34:07;;;;;;;6.70;5.03;;;;;;;6.12;73.71;100757.19;5128403;28;20024;-83
2021/05/08 00:36:34;;;;;;;6.72;5.20;;;;;;;6.04;73.78;100759.97;5125370;28;20062;-83
2021/05/08 00:39:01;;;;;;;8.38;5.20;;;;;;;6.05;73.48;100766.09;5124307;28;20031;-83
2021/05/08 00:41:27;;;;;;;8.60;5.28;;;;;;;5.97;73.37;100772.41;5138733;27;20035;-83
2021/05/08 00:43:55;;;;;;;7.93;5.15;;;;;;;5.94;73.10;100777.72;5123636;28;20067;-83
2021/05/08 00:46:22;;;;;;;8.68;5.38;;;;;;;5.85;74.14;100756.84;5101510;28;20139;-83
2021/05/08 00:48:49;;;;;;;8.98;5.13;;;;;;;5.83;74.09;100761.28;5114528;28;20043;-83
2021/05/08 00:51:15;;;;;;;9.68;5.22;;;;;;;5.74;74.46;100756.22;5109799;28;20230;-83
2021/05/08 00:53:41;;;;;;;6.93;5.20;;;;;;;5.70;75.21;100754.56;5129859;27;20142;-83
2021/05/08 00:56:08;;;;;;;7.03;5.25;;;;;;;5.68;75.21;100752.84;5107758;28;20015;-83
2021/05/08 00:58:35;;;;;;;6.47;5.07;;;;;;;5.62;75.43;100748.63;5122298;28;20039;-82
2021/05/08 01:01:01;;;;;;;8.38;5.65;;;;;;;5.60;75.71;100763.53;5122486;28;20084;-83
2021/05/08 01:03:30;;;;;;;8.68;5.60;;;;;;;5.59;75.68;100765.31;5113472;28;20040;-82
2021/05/08 01:05:56;;;;;;;9.02;5.70;;;;;;;5.59;75.94;100764.44;5118391;27;20071;-83
2021/05/08 01:08:22;;;;;;;11.05;6.25;;;;;;;5.53;76.14;100754.91;5112891;28;20104;-80
2021/05/08 01:10:49;;;;;;;10.48;6.60;;;;;;;5.47;76.31;100754.19;5124538;28;20071;-80
2021/05/08 01:13:16;;;;;;;8.48;5.80;;;;;;;5.40;76.53;100763.94;5115329;28;20147;-83
2021/05/08 01:15:44;;;;;;;8.82;5.95;;;;;;;5.37;77.12;100760.50;5101346;28;20043;-82
2021/05/08 01:18:13;;;;;;;11.10;6.20;;;;;;;5.33;76.70;100761.47;5088686;28;20504;-83
2021/05/08 01:20:41;;;;;;;9.57;6.18;;;;;;;5.25;76.79;100757.22;5112534;28;20074;-83
2021/05/08 01:23:08;;;;;;;9.48;6.07;;;;;;;5.24;77.43;100752.00;5108597;28;20104;-83
2021/05/08 01:25:34;;;;;;;9.05;6.28;;;;;;;5.20;77.42;100745.94;5102496;28;20074;-83
2021/05/08 01:28:01;;;;;;;8.63;6.10;;;;;;;5.20;77.41;100752.94;5107510;28;20082;-84
2021/05/08 01:30:31;;;;;;;7.82;6.22;;;;;;;5.20;78.32;100756.44;5105810;28;20043;-83
2021/05/08 01:32:58;;;;;;;7.43;5.63;;;;;;;5.10;77.48;100748.78;5123270;28;20031;-83
2021/05/08 01:35:27;;;;;;;8.00;5.57;;;;;;;5.01;78.04;100747.22;5126357;28;20048;-83
2021/05/08 01:37:53;;;;;;;9.32;6.07;;;;;;;5.02;79.13;100751.56;5117654;28;20048;-84
2021/05/08 01:40:26;;;;;;;10.38;6.55;;;;;;;4.99;78.94;100749.00;5115321;28;20040;-84
2021/05/08 01:42:53;;;;;;;8.40;6.32;;;;;;;4.97;78.85;100739.41;5103371;28;20047;-83
2021/05/08 01:45:22;;;;;;;9.60;7.15;;;;;;;4.99;78.82;100740.25;5099929;28;20147;-83
2021/05/08 01:47:54;;;;;;;8.50;6.60;;;;;;;5.00;78.81;100737.59;5104661;28;20040;-84
2021/05/08 01:50:23;;;;;;;14.82;7.85;;;;;;;5.04;77.69;100741.88;5091363;28;20059;-83
2021/05/08 01:52:49;;;;;;;10.15;7.63;;;;;;;5.06;76.83;100737.47;5109240;28;20182;-84
2021/05/08 01:55:23;;;;;;;10.75;7.85;;;;;;;4.99;76.82;100725.38;5107032;28;20071;-84
2021/05/08 01:57:51;;;;;;;12.88;8.43;;;;;;;4.98;76.96;100726.28;5114423;28;20440;-84
2021/05/08 02:00:29;;;;;;;11.65;8.43;;;;;;;4.93;76.59;100731.59;5111902;28;20077;-84
2021/05/08 02:02:57;;;;;;;11.07;8.48;;;;;;;4.87;77.00;100734.34;5117881;28;20162;-83
2021/05/08 02:05:27;;;;;;;10.30;8.63;;;;;;;4.82;76.99;100732.69;5116494;28;20154;-83
2021/05/08 02:07:53;;;;;;;12.40;8.93;;;;;;;4.76;77.52;100727.53;5122148;28;20055;-83
2021/05/08 02:10:21;;;;;;;12.32;9.65;;;;;;;4.75;77.28;100725.81;5104135;28;20067;-83
2021/05/08 02:12:47;;;;;;;12.02;9.57;;;;;;;4.70;77.16;100727.66;5124909;28;20046;-83
2021/05/08 02:15:15;;;;;;;13.23;9.65;;;;;;;4.66;77.62;100732.09;5120791;28;20062;-83
2021/05/08 02:17:41;;;;;;;11.93;9.32;;;;;;;4.58;77.87;100733.97;5119240;28;20489;-82
2021/05/08 02:20:16;;;;;;;13.35;9.00;;;;;;;4.56;78.54;100734.00;5119956;28;20086;-83
2021/05/08 02:22:44;;;;;;;11.27;9.32;;;;;;;4.56;77.62;100728.75;5094149;28;20111;-82
2021/05/08 02:25:12;;;;;;;14.70;9.68;;;;;;;4.56;78.18;100731.38;5105112;28;20046;-82
2021/05/08 02:27:40;;;;;;;13.70;9.90;;;;;;;4.61;78.08;100731.31;5111234;28;20043;-82
2021/05/08 02:30:11;;;;;;;10.40;9.27;;;;;;;4.60;76.99;100726.94;5105637;28;20044;-82
2021/05/08 02:32:38;;;;;;;11.85;9.38;;;;;;;4.63;77.24;100726.03;5104628;28;20131;-82
2021/05/08 02:35:07;;;;;;;11.38;9.38;;;;;;;4.64;76.84;100730.38;5091732;28;20589;-82
2021/05/08 02:37:33;;;;;;;11.68;9.52;;;;;;;4.62;76.77;100735.66;5123389;27;20051;-82
2021/05/08 02:40:06;;;;;;;10.05;9.00;;;;;;;4.60;77.08;100729.56;5087167;28;20135;-83
2021/05/08 02:42:33;;;;;;;10.38;9.05;;;;;;;4.61;76.98;100733.94;5088386;28;20046;-83
2021/05/08 02:44:59;;;;;;;12.50;9.27;;;;;;;4.57;77.18;100735.72;5090433;28;20046;-83
2021/05/08 02:47:25;;;;;;;11.55;9.65;;;;;;;4.52;76.48;100736.72;5107455;28;20138;-82
2021/05/08 02:49:55;;;;;;;13.25;9.23;;;;;;;4.45;77.37;100733.31;5104096;28;20478;-82
2021/05/08 02:52:22;;;;;;;11.10;8.88;;;;;;;4.41;77.17;100742.13;5104748;28;20067;-83
2021/05/08 02:54:49;;;;;;;9.77;8.77;;;;;;;4.37;77.13;100739.59;5090610;28;20048;-83
2021/05/08 02:57:16;;;;;;;13.55;9.13;;;;;;;4.34;77.27;100739.63;5125026;27;20109;-83
2021/05/08 02:59:42;;;;;;;11.32;9.10;;;;;;;4.35;77.25;100737.00;5127014;27;20241;-82
2021/05/08 03:02:09;;;;;;;13.30;9.55;;;;;;;4.35;77.14;100739.63;5111416;27;20047;-82
2021/05/08 03:04:35;;;;;;;10.75;8.77;;;;;;;4.32;76.82;100742.28;5104664;28;20112;-82
2021/05/08 03:07:02;;;;;;;10.65;8.95;;;;;;;4.26;77.22;100729.25;5106916;27;20052;-82
2021/05/08 03:09:32;;;;;;;12.05;9.00;;;;;;;4.28;77.73;100737.97;5111376;28;20658;-82
2021/05/08 03:12:01;;;;;;;11.33;9.00;;;;;;;4.24;77.12;100731.06;5095602;28;20051;-82
2021/05/08 03:14:27;;;;;;;11.25;9.02;;;;;;;4.25;77.76;100732.75;5115418;27;20058;-82
2021/05/08 03:17:04;;;;;;;11.90;8.68;;;;;;;4.26;77.92;100734.50;5116184;27;20109;-81
2021/05/08 03:19:33;;;;;;;;;;;;;;;4.29;77.84;100734.47;5108705;28;20074;-82
2021/05/08 03:22:03;;;;;;;11.98;8.32;;;;;;;4.28;77.92;100724.84;5121221;28;19916;-82
2021/05/08 03:24:29;;;;;;;9.80;8.23;;;;;;;4.29;77.79;100731.84;5128352;28;20035;-81
2021/05/08 03:26:55;;;;;;;12.00;8.77;;;;;;;4.30;77.50;100725.72;5113899;28;20036;-82
2021/05/08 03:29:21;;;;;;;13.05;8.63;;;;;;;4.25;77.64;100719.66;5126034;28;20047;-82
2021/05/08 03:31:48;;;;;;;9.85;8.63;;;;;;;4.25;77.93;100722.28;5113528;28;20040;-81
2021/05/08 03:34:17;;;;;;;11.50;9.07;;;;;;;4.24;77.60;100717.97;5116156;28;20035;-82
2021/05/08 03:36:43;;;;;;;9.80;8.63;;;;;;;4.18;77.14;100718.91;5125296;28;20051;-83
2021/05/08 03:39:12;;;;;;;9.32;8.30;;;;;;;4.17;77.34;100721.56;5112909;28;20044;-84
2021/05/08 03:41:47;;;;;;;10.48;8.73;;;;;;;4.17;77.84;100713.69;5113391;28;20104;-82
2021/05/08 03:44:14;;;;;;;12.15;8.52;;;;;;;4.23;78.26;100737.19;5118450;28;20038;-82
2021/05/08 03:46:42;;;;;;;12.38;8.93;;;;;;;4.27;78.64;100733.59;5130131;28;20031;-82
2021/05/08 03:49:09;;;;;;;10.82;8.43;;;;;;;4.28;77.74;100729.25;5097920;28;20079;-82
2021/05/08 03:51:37;;;;;;;10.38;8.15;;;;;;;4.28;77.19;100732.72;5126267;28;20044;-81
2021/05/08 03:54:03;;;;;;;12.55;8.32;;;;;;;4.27;76.98;100731.00;5127714;27;20058;-82
2021/05/08 03:56:32;;;;;;;11.13;8.75;;;;;;;4.24;77.04;100723.19;5122398;28;20490;-82
2021/05/08 03:58:58;;;;;;;10.48;8.75;;;;;;;4.19;77.34;100719.78;5129862;28;20078;-82
2021/05/08 04:01:25;;;;;;;13.05;8.73;;;;;;;4.20;77.25;100724.13;5126930;28;20040;-81
2021/05/08 04:03:51;;;;;;;12.23;8.35;;;;;;;4.20;76.87;100725.00;5126912;27;20114;-81
2021/05/08 04:06:17;;;;;;;10.00;8.57;;;;;;;4.21;77.66;100729.34;5125538;27;20080;-83
2021/05/08 04:08:44;;;;;;;9.82;8.18;;;;;;;4.21;76.88;100720.63;5122167;28;20035;-83
2021/05/08 04:11:10;;;;;;;11.32;8.70;;;;;;;4.21;77.53;100731.09;5126458;28;20056;-83
2021/05/08 04:13:38;;;;;;;9.50;8.15;;;;;;;4.18;78.08;100712.81;5119477;28;20123;-83
2021/05/08 04:16:04;;;;;;;10.57;7.78;;;;;;;4.27;77.20;100732.75;5109684;28;20120;-82
2021/05/08 04:18:31;;;;;;;12.00;8.57;;;;;;;4.28;77.38;100730.09;5107817;28;20043;-83
2021/05/08 04:20:58;;;;;;;9.25;7.97;;;;;;;4.31;77.87;100735.31;5106667;28;20046;-82
2021/05/08 04:23:24;;;;;;;10.27;8.32;;;;;;;4.34;77.98;100724.78;5107416;28;20071;-82
2021/05/08 04:25:50;;;;;;;11.68;9.15;;;;;;;4.39;77.75;100733.44;5105351;28;20054;-82
2021/05/08 04:28:17;;;;;;;10.07;7.97;;;;;;;4.41;78.04;100726.38;5088506;28;20371;-83
2021/05/08 04:30:43;;;;;;;11.48;8.10;;;;;;;4.46;77.92;100729.81;5112864;28;20527;-83
2021/05/08 04:33:18;;;;;;;9.30;8.15;;;;;;;4.49;78.08;100726.28;5108430;28;20055;-83
2021/05/08 04:35:44;;;;;;;8.95;7.43;;;;;;;4.52;78.07;100721.84;5125183;28;20103;-83
2021/05/08 04:38:12;;;;;;;10.10;7.85;;;;;;;4.54;77.57;100717.44;5119179;28;20034;-82
2021/05/08 04:40:38;;;;;;;9.23;7.75;;;;;;;4.58;76.96;100723.47;5115133;28;20077;-82
2021/05/08 04:43:04;;;;;;;8.48;7.45;;;;;;;4.56;77.09;100712.19;5119783;28;20066;-83
2021/05/08 04:45:31;;;;;;;10.73;8.00;;;;;;;4.57;76.43;100720.00;5124629;28;20108;-82
2021/05/08 04:47:59;;;;;;;9.27;8.00;;;;;;;4.59;76.56;100714.72;5103414;28;20047;-83
2021/05/08 04:50:28;;;;;;;10.55;8.48;;;;;;;4.64;76.51;100719.91;5108623;28;20070;-83
2021/05/08 04:52:55;;;;;;;9.15;7.43;;;;;;;4.69;76.79;100716.31;5101422;28;20086;-83
2021/05/08 04:55:21;;;;;;;12.98;7.82;;;;;;;4.72;76.80;100716.22;5107048;28;20048;-83
2021/05/08 04:57:49;;;;;;;9.00;7.40;;;;;;;4.76;75.97;100722.28;5107067;28;20052;-82
2021/05/08 05:00:15;;;;;;;11.25;8.10;;;;;;;4.77;76.97;100708.28;5089098;28;20047;-82
2021/05/08 05:02:43;;;;;;;10.20;8.57;;;;;;;4.85;75.77;100727.41;5105845;28;20858;-82
2021/05/08 05:05:11;;;;;;;10.15;8.50;;;;;;;4.86;76.09;100735.25;5105060;28;20051;-82
2021/05/08 05:07:41;;;;;;;9.20;7.90;;;;;;;4.93;75.88;100730.72;5102848;27;20054;-82
2021/05/08 05:10:13;;;;;;;9.32;7.82;;;;;;;4.99;75.53;100728.00;5106414;28;20526;-82
2021/05/08 05:12:39;;;;;;;9.93;7.15;;;;;;;5.09;74.72;100726.06;5109586;28;20550;-81
2021/05/08 05:15:06;;;;;;;8.98;7.05;;;;;;;5.15;74.73;100726.81;5107778;28;20066;-84
2021/05/08 05:17:32;;;;;;;9.55;7.38;;;;;;;5.18;74.79;100733.78;5104120;28;20452;-82
2021/05/08 05:20:00;;;;;;;9.20;7.55;;;;;;;5.23;74.78;100740.63;5094538;28;20051;-82
2021/05/08 05:22:26;;;;;;;9.77;7.28;;;;;;;5.25;74.71;100736.22;5104903;28;21293;-82
2021/05/08 05:24:52;;;;;;;10.90;8.20;;;;;;;5.29;74.37;100729.16;5119565;28;20115;-82
2021/05/08 05:27:20;;;;;;;9.02;8.07;;;;;;;5.34;74.40;100737.81;5120820;28;20039;-83
2021/05/08 05:29:47;;;;;;;10.48;8.45;;;;;;;5.40;74.29;100734.19;5130256;28;20054;-80
2021/05/08 05:32:13;;;;;;;11.95;8.25;;;;;;;5.46;74.32;100739.31;5120464;28;20075;-82
2021/05/08 05:34:39;;;;;;;10.23;8.70;;;;;;;5.54;74.02;100740.00;5118212;28;20059;-81
2021/05/08 05:37:05;;;;;;;9.73;8.57;;;;;;;5.54;73.91;100726.88;5120373;28;20039;-81
2021/05/08 05:39:32;;;;;;;10.18;8.40;;;;;;;5.66;73.61;100733.66;5118707;28;20048;-81
2021/05/08 05:42:01;;;;;;;11.18;8.85;;;;;;;5.75;73.77;100755.34;5136133;28;20158;-83
2021/05/08 05:44:28;;;;;;;9.55;8.55;;;;;;;5.85;73.15;100741.09;5124162;28;20039;-83
2021/05/08 05:46:54;;;;;;;10.65;8.50;;;;;;;6.04;72.19;100745.97;5125447;28;20044;-83
2021/05/08 05:49:20;;;;;;;10.45;8.68;;;;;;;6.14;72.31;100743.09;5121671;28;20028;-80
2021/05/08 05:51:46;;;;;;;11.43;9.18;;;;;;;6.27;71.69;100746.31;5123022;28;20047;-80
2021/05/08 05:54:13;;;;;;;12.48;9.30;;;;;;;6.40;71.25;100754.78;5130993;28;20095;-81
2021/05/08 05:56:39;;;;;;;10.60;9.10;;;;;;;6.51;70.49;100755.38;5103210;28;20048;-81
2021/05/08 05:59:08;;;;;;;11.10;8.80;;;;;;;6.56;70.46;100740.34;5112465;28;20089;-81
2021/05/08 06:01:34;;;;;;;11.70;8.48;;;;;;;6.78;69.77;100743.25;5118403;28;20051;-79
2021/05/08 06:04:00;;;;;;;9.38;8.45;;;;;;;6.92;69.87;100744.66;5126221;28;20040;-79
2021/05/08 06:06:29;;;;;;;12.43;9.25;;;;;;;7.08;67.86;100739.84;5109685;28;20040;-80
2021/05/08 06:08:55;;;;;;;11.00;9.25;;;;;;;7.27;66.96;100740.19;5113582;28;20410;-81
2021/05/08 06:11:22;;;;;;;9.63;8.52;;;;;;;7.78;66.29;100736.97;5109156;28;20054;-80
2021/05/08 06:13:48;;;;;;;10.85;8.38;;;;;;;10.28;58.25;100729.03;5106185;27;20428;-82
2021/05/08 06:16:16;;;;;;;9.32;7.70;;;;;;;12.82;49.94;100733.31;5107954;28;20134;-83
2021/05/08 06:18:43;;;;;;;7.80;7.03;;;;;;;14.92;43.24;100730.56;5114207;27;20043;-83
2021/05/08 06:21:11;;;;;;;9.02;6.78;;;;;;;16.39;40.03;100733.75;5113934;27;20067;-83
2021/05/08 06:23:38;;;;;;;9.88;6.15;;;;;;;18.10;36.64;100722.78;5116955;28;20107;-82
2021/05/08 06:26:05;;;;;;;7.60;5.85;;;;;;;19.42;33.25;100714.53;5145928;27;20051;-83
2021/05/08 06:28:33;;;;;;;7.28;6.45;;;;;;;20.61;30.97;100724.56;5110966;28;20071;-83
2021/05/08 06:31:02;;;;;;;7.53;6.07;;;;;;;21.53;27.81;100730.19;5112266;28;20040;-84
2021/05/08 06:33:28;;;;;;;7.20;5.90;;;;;;;21.57;27.00;100734.31;5101699;28;20052;-84
2021/05/08 06:35:55;;;;;;;7.43;6.38;;;;;;;21.67;27.29;100725.31;5119913;27;20067;-83
2021/05/08 06:38:22;;;;;;;6.43;5.82;;;;;;;22.21;26.39;100734.00;5119588;27;20082;-84
2021/05/08 06:40:51;;;;;;;7.38;6.20;;;;;;;22.16;25.53;100723.66;5140806;27;20130;-84
2021/05/08 06:43:18;;;;;;;6.72;6.00;;;;;;;22.05;26.25;100715.66;5112212;27;20047;-80
2021/05/08 06:45:51;;;;;;;5.95;5.15;;;;;;;22.32;24.73;100715.03;5122040;27;20070;-82
2021/05/08 06:48:19;;;;;;;5.93;5.32;;;;;;;22.57;24.59;100716.31;5133520;27;20052;-81
2021/05/08 06:50:48;;;;;;;6.75;5.90;;;;;;;22.70;24.73;100720.44;5123176;27;20024;-84
2021/05/08 06:53:18;;;;;;;7.13;5.63;;;;;;;23.11;24.20;100714.91;5124685;28;20135;-84
2021/05/08 06:55:50;;;;;;;6.60;5.90;;;;;;;23.21;23.92;100713.91;5108583;28;20028;-83
2021/05/08 06:58:16;;;;;;;5.93;5.32;;;;;;;23.32;23.63;100724.53;5129027;28;20051;-84
2021/05/08 07:00:42;;;;;;;5.80;5.30;;;;;;;23.66;23.04;100729.44;5112693;28;20503;-84
2021/05/08 07:03:12;;;;;;;;;;;;;;;24.11;23.02;100733.06;5112172;28;20046;-84
2021/05/08 07:05:39;;;;;;;6.38;5.70;;;;;;;24.39;22.35;100724.97;5108959;28;19924;-84
2021/05/08 07:08:07;;;;;;;7.47;5.85;;;;;;;24.36;22.37;100717.16;5121104;27;20058;-85
2021/05/08 07:10:43;;;;;;;6.47;5.70;;;;;;;24.31;22.39;100711.34;5126789;28;20054;-84
2021/05/08 07:13:09;;;;;;;6.40;5.35;;;;;;;24.50;24.17;100716.63;5107520;28;20044;-84
2021/05/08 07:15:51;;;;;;;5.75;5.22;;;;;;;24.58;23.96;100710.44;5109728;28;20040;-84
2021/05/08 07:18:20;;;;;;;7.28;5.72;;;;;;;24.32;24.07;100708.50;5108571;27;20052;-83
2021/05/08 07:20:51;;;;;;;8.60;5.10;;;;;;;24.28;24.23;100707.06;5089099;28;20073;-84
2021/05/08 07:23:17;;;;;;;6.75;5.32;;;;;;;24.26;24.31;100706.38;5110047;27;20051;-84
2021/05/08 07:25:48;;;;;;;6.43;5.82;;;;;;;24.48;21.88;100703.25;5090375;28;20142;-83
2021/05/08 07:28:23;;;;;;;7.38;5.93;;;;;;;24.30;23.76;100698.81;5109984;28;20075;-86
2021/05/08 07:30:59;;;;;;;6.90;6.30;;;;;;;23.87;24.28;100705.72;5112140;27;20040;-85
2021/05/08 07:33:46;;;;;;;7.93;6.22;;;;;;;23.83;23.91;100703.47;5114686;28;20407;-85
2021/05/08 07:36:13;;;;;;;7.50;5.80;;;;;;;23.19;23.78;100694.28;5105564;28;20044;-85
2021/05/08 07:38:41;;;;;;;6.18;5.35;;;;;;;23.06;24.98;100702.69;5108224;28;20103;-84
2021/05/08 07:41:08;;;;;;;9.07;6.15;;;;;;;23.36;24.21;100706.19;5100254;28;20051;-85
2021/05/08 07:43:36;;;;;;;8.02;5.57;;;;;;;23.65;24.79;100706.09;5091878;28;20283;-84
2021/05/08 07:46:03;;;;;;;8.07;6.10;;;;;;;23.75;24.33;100709.63;5089170;28;20060;-85
2021/05/08 07:48:31;;;;;;;6.78;5.72;;;;;;;23.88;24.61;100703.88;5104181;28;20054;-85
2021/05/08 07:51:03;;;;;;;8.13;6.70;;;;;;;23.39;23.31;100712.16;5105575;28;20067;-84
2021/05/08 07:53:30;;;;;;;10.60;6.53;;;;;;;22.02;24.71;100705.19;5107769;27;20052;-86
2021/05/08 07:55:56;;;;;;;7.60;6.80;;;;;;;20.88;26.12;100697.16;5108441;28;20047;-84
2021/05/08 07:58:23;;;;;;;7.55;6.78;;;;;;;20.54;26.91;100703.69;5115648;27;20044;-84
2021/05/08 08:00:50;;;;;;;7.60;6.43;;;;;;;20.68;26.94;100703.38;5115056;27;20028;-83
2021/05/08 08:03:16;;;;;;;6.88;6.28;;;;;;;20.63;26.79;100681.38;5124324;27;20188;-84
2021/05/08 08:05:54;;;;;;;8.40;6.43;;;;;;;21.15;26.53;100699.31;5125454;27;20048;-84
2021/05/08 08:08:24;;;;;;;7.25;6.00;;;;;;;21.15;26.24;100693.94;5114342;27;20059;-83
2021/05/08 08:10:52;;;;;;;6.50;5.20;;;;;;;20.47;26.65;100692.56;5117524;28;20047;-84
2021/05/08 08:13:18;;;;;;;7.90;6.63;;;;;;;19.66;27.99;100681.38;5114123;27;20050;-84
2021/05/08 08:15:48;;;;;;;7.75;6.07;;;;;;;18.76;29.70;100694.63;5114047;28;20470;-84
2021/05/08 08:18:14;;;;;;;6.45;5.82;;;;;;;18.05;30.29;100686.56;5100213;28;20082;-85
2021/05/08 08:20:41;;;;;;;7.10;6.35;;;;;;;17.67;31.86;100690.19;5113848;28;20036;-83
2021/05/08 08:23:08;;;;;;;7.70;6.47;;;;;;;17.28;32.52;100680.50;5109728;28;20078;-84
2021/05/08 08:25:35;;;;;;;7.20;6.50;;;;;;;17.01;33.08;100685.91;5117637;27;20067;-83
2021/05/08 08:28:01;;;;;;;9.90;7.50;;;;;;;16.19;34.23;100683.47;5115164;28;20050;-83
2021/05/08 08:30:30;;;;;;;7.65;6.78;;;;;;;15.76;34.93;100667.53;5119384;28;20048;-84
2021/05/08 08:32:56;;;;;;;8.55;7.00;;;;;;;15.59;35.49;100666.88;5109466;28;20043;-83
2021/05/08 08:35:22;;;;;;;9.32;6.63;;;;;;;15.63;36.62;100665.75;5115400;28;20078;-84
2021/05/08 08:37:49;;;;;;;10.23;6.85;;;;;;;15.44;35.33;100663.34;5128359;28;20043;-83
2021/05/08 08:40:16;;;;;;;7.05;6.35;;;;;;;15.25;35.81;100660.13;5133088;28;20044;-83
2021/05/08 08:42:42;;;;;;;10.45;6.22;;;;;;;15.30;36.21;100656.19;5280521;22;20074;-84
2021/05/08 08:45:09;;;;;;;8.50;6.28;;;;;;;15.06;35.96;100661.25;5109437;28;20047;-86
2021/05/08 08:47:38;;;;;;;9.25;5.97;;;;;;;14.99;36.46;100662.56;5116904;27;20077;-84
2021/05/08 08:50:10;;;;;;;7.88;6.10;;;;;;;15.03;36.34;100661.44;5111543;28;20055;-83
2021/05/08 08:52:39;;;;;;;7.60;5.88;;;;;;;14.92;36.32;100657.72;5087745;28;20033;-81
2021/05/08 08:55:09;;;;;;;9.75;6.65;;;;;;;14.93;36.92;100654.97;5110492;28;20051;-80
2021/05/08 08:57:45;;;;;;;12.77;6.63;;;;;;;14.85;36.75;100654.56;5097707;28;20075;-79
2021/05/08 09:00:14;;;;;;;8.48;6.32;;;;;;;14.95;37.37;100653.03;5101758;28;20068;-86
2021/05/08 09:02:46;;;;;;;8.65;5.57;;;;;;;15.38;38.14;100658.41;5097295;28;20048;-83
2021/05/08 09:05:15;;;;;;;8.02;5.82;;;;;;;15.71;37.22;100650.97;5082301;28;20051;-80
2021/05/08 09:07:47;;;;;;;9.88;6.20;;;;;;;15.90;36.08;100644.44;5096309;28;20068;-86
2021/05/08 09:10:32;;;;;;;8.45;5.40;;;;;;;15.78;35.23;100635.38;5112020;28;20039;-84
2021/05/08 09:13:00;;;;;;;7.28;5.43;;;;;;;15.86;36.45;100643.78;5102494;28;20039;-83
2021/05/08 09:15:41;;;;;;;7.55;5.57;;;;;;;15.77;35.48;100637.19;5101453;28;20390;-84
2021/05/08 09:18:35;;;;;;;9.45;5.75;;;;;;;15.65;35.82;100626.47;5100501;28;20108;-85
2021/05/08 09:21:25;;;;;;;5.75;4.85;;;;;;;15.71;35.79;100631.41;5105726;28;20051;-85
2021/05/08 09:24:08;;;;;;;6.45;4.40;;;;;;;15.74;35.79;100637.38;5103776;28;20044;-81
2021/05/08 09:26:38;;;;;;;7.60;4.85;;;;;;;15.81;35.53;100629.84;5106449;27;20067;-83
2021/05/08 09:29:17;;;;;;;6.40;4.85;;;;;;;15.81;36.34;100629.00;5115360;28;20057;-83
2021/05/08 09:31:57;;;;;;;5.95;4.53;;;;;;;15.98;36.74;100621.59;5092905;28;20052;-83
2021/05/08 09:34:24;;;;;;;4.90;3.92;;;;;;;16.26;35.14;100615.28;5099731;28;20051;-84
2021/05/08 09:36:51;;;;;;;8.90;4.45;;;;;;;16.28;35.07;100616.03;5103814;28;20036;-83
2021/05/08 09:39:32;;;;;;;7.38;4.63;;;;;;;16.12;36.52;100607.34;5084017;28;20442;-83
2021/05/08 09:42:00;;;;;;;5.90;4.30;;;;;;;16.10;36.50;100601.22;5105005;28;20066;-83
2021/05/08 09:44:27;;;;;;;5.40;4.10;;;;;;;16.27;35.23;100600.09;5107871;28;20040;-83
2021/05/08 09:46:56;;;;;;;5.97;4.43;;;;;;;16.36;34.16;100603.03;5112807;28;20070;-82
2021/05/08 09:49:31;;;;;;;5.25;3.83;;;;;;;16.47;34.13;100591.59;5103365;28;20052;-83
2021/05/08 09:52:00;;;;;;;4.60;3.78;;;;;;;16.65;34.26;100584.16;5108557;28;20075;-84
2021/05/08 09:54:27;;;;;;;8.48;4.20;;;;;;;16.93;34.18;100577.75;5113702;28;20024;-83
2021/05/08 09:56:53;;;;;;;5.30;3.53;;;;;;;17.12;33.23;100572.81;5109591;28;20030;-84
2021/05/08 09:59:35;;;;;;;5.93;3.45;;;;;;;17.15;31.75;100575.28;5118452;28;20028;-84
2021/05/08 10:02:02;;;;;;;5.50;3.05;;;;;;;17.18;32.51;100573.22;5105202;28;20081;-84
2021/05/08 10:04:34;;;;;;;6.15;3.40;;;;;;;17.07;31.63;100573.13;5085389;28;20063;-84
2021/05/08 10:07:11;;;;;;;6.10;3.50;;;;;;;17.07;31.10;100558.91;5103552;28;20211;-84
2021/05/08 10:09:42;;;;;;;6.22;3.30;;;;;;;17.21;31.55;100564.13;5081856;28;20078;-84
2021/05/08 10:12:11;;;;;;;5.30;2.97;;;;;;;17.40;30.70;100548.44;5113118;28;20043;-83
2021/05/08 10:14:43;;;;;;;5.75;3.22;;;;;;;17.52;29.89;100549.34;5101074;28;20536;-83
2021/05/08 10:17:18;;;;;;;5.13;3.10;;;;;;;17.54;29.70;100542.06;5077930;28;20540;-84
2021/05/08 10:19:47;;;;;;;6.38;3.38;;;;;;;17.40;29.88;100544.91;5087633;28;20043;-82
2021/05/08 10:22:15;;;;;;;5.68;3.33;;;;;;;17.33;30.02;100559.69;5112937;28;20044;-85
2021/05/08 10:24:46;;;;;;;5.00;3.47;;;;;;;17.33;30.21;100551.66;5093848;28;20040;-85
2021/05/08 10:27:13;;;;;;;7.25;3.20;;;;;;;17.63;29.87;100536.03;5106702;28;20048;-84
2021/05/08 10:29:50;;;;;;;3.53;3.08;;;;;;;17.72;28.91;100535.41;5105291;28;20056;-84
2021/05/08 10:32:20;;;;;;;5.25;3.60;;;;;;;17.60;29.47;100528.25;5099710;28;20048;-85
2021/05/08 10:34:55;;;;;;;;;;;;;;;17.66;29.50;100518.91;5106547;28;20070;-84
2021/05/08 10:37:27;;;;;;;6.00;3.30;;;;;;;17.53;29.29;100519.78;5096458;28;19927;-85
2021/05/08 10:40:12;;;;;;;6.60;3.15;;;;;;;17.26;29.55;100512.94;5112544;28;20040;-83
2021/05/08 10:42:43;;;;;;;3.45;2.40;;;;;;;16.81;29.65;100509.94;5104379;28;20059;-84
2021/05/08 10:45:21;;;;;;;3.60;2.78;;;;;;;16.56;30.08;100518.78;5096854;28;20089;-85
2021/05/08 10:47:59;;;;;;;9.07;2.75;;;;;;;16.38;30.50;100515.56;5097464;28;20106;-84
2021/05/08 10:50:47;;;;;;;4.30;2.85;;;;;;;16.47;31.04;100522.97;5100276;28;20483;-85
2021/05/08 10:53:18;;;;;;;5.63;2.80;;;;;;;16.48;30.73;100508.63;5080307;28;20052;-84
2021/05/08 10:56:01;;;;;;;4.40;2.65;;;;;;;16.77;30.98;100503.94;5092912;28;20482;-84
2021/05/08 10:58:33;;;;;;;4.57;2.47;;;;;;;16.84;30.95;100488.31;5076739;28;20452;-83
2021/05/08 11:01:08;;;;;;;5.03;2.28;;;;;;;17.15;30.27;100482.47;5111266;28;20046;-84
2021/05/08 11:04:13;;;;;;;3.25;1.63;;;;;;;17.63;29.42;100484.31;5113696;28;20052;-83
2021/05/08 11:06:45;;;;;;;3.80;2.13;;;;;;;17.75;28.32;100480.75;5088747;28;20039;-84
2021/05/08 11:09:31;;;;;;;4.75;2.40;;;;;;;17.83;27.29;100481.88;5107013;28;20044;-83
2021/05/08 11:11:57;;;;;;;4.00;1.95;;;;;;;17.98;27.01;100487.88;5095177;28;20066;-83
2021/05/08 11:15:03;;;;;;;3.55;2.10;;;;;;;18.05;26.86;100477.56;5092976;28;20718;-84
2021/05/08 11:18:00;;;;;;;4.05;2.13;;;;;;;17.98;26.91;100473.63;5033807;28;20103;-83
2021/05/08 11:20:31;;;;;;;2.47;1.95;;;;;;;18.02;26.92;100469.75;5032700;28;20045;-82
2021/05/08 11:22:58;;;;;;;3.95;1.98;;;;;;;18.13;27.46;100467.94;5077312;28;20051;-85
2021/05/08 11:25:34;;;;;;;2.25;1.70;;;;;;;18.28;26.37;100463.22;5101419;28;20125;-83
2021/05/08 11:28:07;;;;;;;3.92;1.80;;;;;;;18.50;25.73;100467.78;5075794;28;20048;-85
2021/05/08 11:30:34;;;;;;;3.67;2.08;;;;;;;18.58;25.89;100465.31;5095615;28;20048;-85
2021/05/08 11:33:01;;;;;;;4.20;1.92;;;;;;;18.82;26.56;100459.88;5095996;28;20053;-82
2021/05/08 11:35:28;;;;;;;6.10;2.35;;;;;;;18.91;26.43;100454.63;5098321;28;20115;-84
2021/05/08 11:38:20;;;;;;;3.63;1.70;;;;;;;19.00;26.24;100442.31;5072670;28;20044;-85